Maersk Weymouth — VRFS9 — position and weather

sailwx.info

Track history (hours):
 
Tides and Currents Weather Stations Pressure Air Temp Water Temp Dewpoint Dewpoint Depression Visibility Wind Speed Wind Dir Waves Ship Positions

Maersk Weymouth

Last reported at 2014-Dec-22 15:30 UTC. Time now 2014-Dec-22 16:20 UTC.
Position N 35°60' W 005°30'.

Length 172 m; draft 9.2 m.

Type: Cargo ship. MMSI: 477622100.

Date/timePositionNaut miles runAvg speedWind from/ knotsBaromVisibWave heightAir tempDewpointWater temp
2014-Dec-22 15:30N 35°60' W 005°30'9 9.9
2014-Dec-22 14:33N 36°08' W 005°24'1 1.1
2014-Dec-22 13:19N 36°08' W 005°26'0 0.0
2014-Dec-22 12:07N 36°08' W 005°26'0 0.0
2014-Dec-22 10:19N 36°08' W 005°26'0 0.0
2014-Dec-22 09:31N 36°08' W 005°26'0 0.0
2014-Dec-22 08:28N 36°08' W 005°26'0 0.0
2014-Dec-22 07:31N 36°08' W 005°26'0 0.0
2014-Dec-22 06:19N 36°08' W 005°26'0 0.0
2014-Dec-22 05:07N 36°08' W 005°26'0 0.1
2014-Dec-22 04:31N 36°08' W 005°26'0 0.0
2014-Dec-22 03:25N 36°08' W 005°26'0 0.0
2014-Dec-22 02:31N 36°08' W 005°26'0 0.0
2014-Dec-22 01:31N 36°08' W 005°26'0 0.0
2014-Dec-22 00:31N 36°08' W 005°26'0 0.0
2014-Dec-21 23:25N 36°08' W 005°26'0 0.0
2014-Dec-21 22:25N 36°08' W 005°26'1 1.2
2014-Dec-21 21:33N 36°09' W 005°26'0 0.4
2014-Dec-21 20:26N 36°09' W 005°25'0 0.0
2014-Dec-21 19:32N 36°09' W 005°25'0 0.0
2014-Dec-21 18:32N 36°09' W 005°25'0 0.0
2014-Dec-21 17:20N 36°09' W 005°25'0 0.0
2014-Dec-21 16:26N 36°09' W 005°25'0 0.0
2014-Dec-21 15:26N 36°09' W 005°25'0 0.0
2014-Dec-21 14:32N 36°09' W 005°25'0 0.0
2014-Dec-21 13:32N 36°09' W 005°25'0 0.0
2014-Dec-21 12:32N 36°09' W 005°25'0 0.0
2014-Dec-21 11:32N 36°09' W 005°25'0 0.0
2014-Dec-21 10:32N 36°09' W 005°25'0 0.0
2014-Dec-21 09:32N 36°09' W 005°25'0 0.0
2014-Dec-21 08:32N 36°09' W 005°25'0 0.0
2014-Dec-21 07:32N 36°09' W 005°25'0 0.0
2014-Dec-21 05:32N 36°09' W 005°25'0 0.0
2014-Dec-21 03:31N 36°09' W 005°25'0 0.1
2014-Dec-21 02:32N 36°09' W 005°25'3 3.1
2014-Dec-21 01:33N 36°07' W 005°23'8 8.3
2014-Dec-21 00:33N 35°59' W 005°23'  
Track history (hours):
 
Tides and Currents Weather Stations Pressure Air Temp Water Temp Dewpoint Dewpoint Depression Visibility Wind Speed Wind Dir Waves Ship Positions

Maersk Weymouth

Last reported at 2014-Dec-22 15:30 UTC. Time now 2014-Dec-22 16:20 UTC.
Position N 35°60' W 005°30'.

Length 172 m; draft 9.2 m.

Type: Cargo ship. MMSI: 477622100.

Date/timePositionNaut miles runAvg speedWind from/ knotsBaromVisibWave heightAir tempDewpointWater temp
2014-Dec-22 15:30N 35°60' W 005°30'9 9.9
2014-Dec-22 14:33N 36°08' W 005°24'1 1.1
2014-Dec-22 13:19N 36°08' W 005°26'0 0.0
2014-Dec-22 12:07N 36°08' W 005°26'0 0.0
2014-Dec-22 10:19N 36°08' W 005°26'0 0.0
2014-Dec-22 09:31N 36°08' W 005°26'0 0.0
2014-Dec-22 08:28N 36°08' W 005°26'0 0.0
2014-Dec-22 07:31N 36°08' W 005°26'0 0.0
2014-Dec-22 06:19N 36°08' W 005°26'0 0.0
2014-Dec-22 05:07N 36°08' W 005°26'0 0.1
2014-Dec-22 04:31N 36°08' W 005°26'0 0.0
2014-Dec-22 03:25N 36°08' W 005°26'0 0.0
2014-Dec-22 02:31N 36°08' W 005°26'0 0.0
2014-Dec-22 01:31N 36°08' W 005°26'0 0.0
2014-Dec-22 00:31N 36°08' W 005°26'0 0.0
2014-Dec-21 23:25N 36°08' W 005°26'0 0.0
2014-Dec-21 22:25N 36°08' W 005°26'1 1.2
2014-Dec-21 21:33N 36°09' W 005°26'0 0.4
2014-Dec-21 20:26N 36°09' W 005°25'0 0.0
2014-Dec-21 19:32N 36°09' W 005°25'0 0.0
2014-Dec-21 18:32N 36°09' W 005°25'0 0.0
2014-Dec-21 17:20N 36°09' W 005°25'0 0.0
2014-Dec-21 16:26N 36°09' W 005°25'0 0.0
2014-Dec-21 15:26N 36°09' W 005°25'0 0.0
2014-Dec-21 14:32N 36°09' W 005°25'0 0.0
2014-Dec-21 13:32N 36°09' W 005°25'0 0.0
2014-Dec-21 12:32N 36°09' W 005°25'0 0.0
2014-Dec-21 11:32N 36°09' W 005°25'0 0.0
2014-Dec-21 10:32N 36°09' W 005°25'0 0.0
2014-Dec-21 09:32N 36°09' W 005°25'0 0.0
2014-Dec-21 08:32N 36°09' W 005°25'0 0.0
2014-Dec-21 07:32N 36°09' W 005°25'0 0.0
2014-Dec-21 05:32N 36°09' W 005°25'0 0.0
2014-Dec-21 03:31N 36°09' W 005°25'0 0.1
2014-Dec-21 02:32N 36°09' W 005°25'3 3.1
2014-Dec-21 01:33N 36°07' W 005°23'8 8.3
2014-Dec-21 00:33N 35°59' W 005°23'  

Dump ship's entire track history